sensor_id;sensor_type;location;lat;lon;timestamp;P1;durP1;ratioP1;P2;durP2;ratioP2
24801;SDS011;12898;50.520;12.152;2023-02-28T00:01:08;17.80;;;9.03;;
24801;SDS011;12898;50.520;12.152;2023-02-28T00:03:34;15.43;;;8.30;;
24801;SDS011;12898;50.520;12.152;2023-02-28T00:06:02;14.07;;;7.70;;
24801;SDS011;12898;50.520;12.152;2023-02-28T00:08:29;14.10;;;8.10;;
24801;SDS011;12898;50.520;12.152;2023-02-28T00:10:55;14.13;;;7.70;;
24801;SDS011;12898;50.520;12.152;2023-02-28T00:13:21;14.83;;;7.20;;
24801;SDS011;12898;50.520;12.152;2023-02-28T00:15:46;13.40;;;6.77;;
24801;SDS011;12898;50.520;12.152;2023-02-28T00:18:12;14.27;;;7.23;;
24801;SDS011;12898;50.520;12.152;2023-02-28T00:20:38;14.73;;;6.57;;
24801;SDS011;12898;50.520;12.152;2023-02-28T00:23:04;13.23;;;7.00;;
24801;SDS011;12898;50.520;12.152;2023-02-28T00:25:29;11.00;;;5.67;;
24801;SDS011;12898;50.520;12.152;2023-02-28T00:27:55;12.47;;;6.13;;
24801;SDS011;12898;50.520;12.152;2023-02-28T00:30:21;13.27;;;6.47;;
24801;SDS011;12898;50.520;12.152;2023-02-28T00:32:48;15.33;;;6.63;;
24801;SDS011;12898;50.520;12.152;2023-02-28T00:35:15;14.00;;;6.37;;
24801;SDS011;12898;50.520;12.152;2023-02-28T00:37:43;13.77;;;6.43;;
24801;SDS011;12898;50.520;12.152;2023-02-28T00:40:09;13.37;;;6.90;;
24801;SDS011;12898;50.520;12.152;2023-02-28T00:42:36;13.77;;;7.43;;
24801;SDS011;12898;50.520;12.152;2023-02-28T00:45:02;16.47;;;7.63;;
24801;SDS011;12898;50.520;12.152;2023-02-28T00:47:29;12.57;;;6.63;;
24801;SDS011;12898;50.520;12.152;2023-02-28T00:49:56;12.37;;;7.07;;
24801;SDS011;12898;50.520;12.152;2023-02-28T00:52:21;14.13;;;6.93;;
24801;SDS011;12898;50.520;12.152;2023-02-28T00:54:47;12.03;;;6.90;;
24801;SDS011;12898;50.520;12.152;2023-02-28T00:57:13;15.93;;;7.60;;
24801;SDS011;12898;50.520;12.152;2023-02-28T00:59:38;14.93;;;7.43;;
24801;SDS011;12898;50.520;12.152;2023-02-28T01:02:04;13.90;;;7.30;;
24801;SDS011;12898;50.520;12.152;2023-02-28T01:04:30;14.40;;;7.47;;
24801;SDS011;12898;50.520;12.152;2023-02-28T01:06:55;15.47;;;7.60;;
24801;SDS011;12898;50.520;12.152;2023-02-28T01:09:21;15.00;;;7.90;;
24801;SDS011;12898;50.520;12.152;2023-02-28T01:11:47;15.00;;;7.33;;
24801;SDS011;12898;50.520;12.152;2023-02-28T01:14:13;14.50;;;7.90;;
24801;SDS011;12898;50.520;12.152;2023-02-28T01:16:41;16.30;;;8.03;;
24801;SDS011;12898;50.520;12.152;2023-02-28T01:19:07;14.07;;;7.60;;
24801;SDS011;12898;50.520;12.152;2023-02-28T01:21:33;13.33;;;7.17;;
24801;SDS011;12898;50.520;12.152;2023-02-28T01:24:00;13.50;;;6.90;;
24801;SDS011;12898;50.520;12.152;2023-02-28T01:26:27;13.83;;;7.70;;
24801;SDS011;12898;50.520;12.152;2023-02-28T01:28:53;17.50;;;8.23;;
24801;SDS011;12898;50.520;12.152;2023-02-28T01:31:19;14.50;;;7.33;;
24801;SDS011;12898;50.520;12.152;2023-02-28T01:33:46;14.97;;;7.97;;
24801;SDS011;12898;50.520;12.152;2023-02-28T01:36:16;18.20;;;8.13;;
24801;SDS011;12898;50.520;12.152;2023-02-28T01:38:45;13.57;;;7.70;;
24801;SDS011;12898;50.520;12.152;2023-02-28T01:41:19;14.33;;;7.30;;
24801;SDS011;12898;50.520;12.152;2023-02-28T01:46:10;15.83;;;7.77;;
24801;SDS011;12898;50.520;12.152;2023-02-28T01:48:38;15.60;;;8.00;;
24801;SDS011;12898;50.520;12.152;2023-02-28T01:51:39;16.87;;;8.00;;
24801;SDS011;12898;50.520;12.152;2023-02-28T01:54:12;15.07;;;7.90;;
24801;SDS011;12898;50.520;12.152;2023-02-28T01:56:44;13.17;;;7.20;;
24801;SDS011;12898;50.520;12.152;2023-02-28T01:59:20;15.83;;;7.97;;
24801;SDS011;12898;50.520;12.152;2023-02-28T02:01:55;13.20;;;7.17;;
24801;SDS011;12898;50.520;12.152;2023-02-28T02:04:21;13.10;;;7.13;;
24801;SDS011;12898;50.520;12.152;2023-02-28T02:06:51;13.93;;;7.87;;
24801;SDS011;12898;50.520;12.152;2023-02-28T02:09:17;17.50;;;6.47;;
24801;SDS011;12898;50.520;12.152;2023-02-28T02:11:43;13.67;;;7.07;;
24801;SDS011;12898;50.520;12.152;2023-02-28T02:14:12;13.63;;;6.90;;
24801;SDS011;12898;50.520;12.152;2023-02-28T02:22:41;14.23;;;6.70;;
24801;SDS011;12898;50.520;12.152;2023-02-28T02:25:43;13.57;;;7.07;;
24801;SDS011;12898;50.520;12.152;2023-02-28T02:31:46;15.27;;;7.30;;
24801;SDS011;12898;50.520;12.152;2023-02-28T02:40:53;15.70;;;7.83;;
24801;SDS011;12898;50.520;12.152;2023-02-28T02:43:51;12.97;;;6.93;;
24801;SDS011;12898;50.520;12.152;2023-02-28T02:46:25;13.27;;;6.90;;
24801;SDS011;12898;50.520;12.152;2023-02-28T02:49:00;14.70;;;7.20;;
24801;SDS011;12898;50.520;12.152;2023-02-28T02:51:30;16.27;;;7.60;;
24801;SDS011;12898;50.520;12.152;2023-02-28T02:57:01;15.10;;;7.93;;
24801;SDS011;12898;50.520;12.152;2023-02-28T02:59:33;13.37;;;7.80;;
24801;SDS011;12898;50.520;12.152;2023-02-28T03:02:02;14.83;;;7.47;;
24801;SDS011;12898;50.520;12.152;2023-02-28T03:04:33;16.93;;;8.13;;
24801;SDS011;12898;50.520;12.152;2023-02-28T03:07:05;15.20;;;7.77;;
24801;SDS011;12898;50.520;12.152;2023-02-28T03:09:32;16.27;;;7.50;;
24801;SDS011;12898;50.520;12.152;2023-02-28T03:12:00;17.10;;;8.33;;
24801;SDS011;12898;50.520;12.152;2023-02-28T03:23:19;16.57;;;8.20;;
24801;SDS011;12898;50.520;12.152;2023-02-28T03:25:59;16.47;;;8.50;;
24801;SDS011;12898;50.520;12.152;2023-02-28T03:36:51;14.47;;;8.33;;
24801;SDS011;12898;50.520;12.152;2023-02-28T03:39:29;15.27;;;7.90;;
24801;SDS011;12898;50.520;12.152;2023-02-28T03:42:15;17.13;;;8.80;;
24801;SDS011;12898;50.520;12.152;2023-02-28T03:44:49;15.47;;;8.40;;
24801;SDS011;12898;50.520;12.152;2023-02-28T03:47:23;17.30;;;8.33;;
24801;SDS011;12898;50.520;12.152;2023-02-28T03:49:57;15.57;;;8.40;;
24801;SDS011;12898;50.520;12.152;2023-02-28T03:52:34;14.50;;;8.53;;
24801;SDS011;12898;50.520;12.152;2023-02-28T03:55:06;16.60;;;8.70;;
24801;SDS011;12898;50.520;12.152;2023-02-28T03:57:50;15.13;;;7.90;;
24801;SDS011;12898;50.520;12.152;2023-02-28T04:00:26;14.20;;;7.83;;
24801;SDS011;12898;50.520;12.152;2023-02-28T04:02:55;16.10;;;8.10;;
24801;SDS011;12898;50.520;12.152;2023-02-28T04:05:21;14.33;;;7.93;;
24801;SDS011;12898;50.520;12.152;2023-02-28T04:07:48;15.50;;;7.70;;
24801;SDS011;12898;50.520;12.152;2023-02-28T04:10:13;16.43;;;8.63;;
24801;SDS011;12898;50.520;12.152;2023-02-28T04:12:40;16.83;;;8.10;;
24801;SDS011;12898;50.520;12.152;2023-02-28T04:15:06;15.77;;;7.83;;
24801;SDS011;12898;50.520;12.152;2023-02-28T04:17:33;14.30;;;7.97;;
24801;SDS011;12898;50.520;12.152;2023-02-28T04:19:58;16.20;;;8.07;;
24801;SDS011;12898;50.520;12.152;2023-02-28T04:22:24;15.13;;;7.77;;
24801;SDS011;12898;50.520;12.152;2023-02-28T04:24:51;15.40;;;8.17;;
24801;SDS011;12898;50.520;12.152;2023-02-28T04:27:18;16.60;;;8.37;;
24801;SDS011;12898;50.520;12.152;2023-02-28T04:29:44;16.07;;;7.93;;
24801;SDS011;12898;50.520;12.152;2023-02-28T04:32:10;17.73;;;8.80;;
24801;SDS011;12898;50.520;12.152;2023-02-28T04:34:36;15.43;;;8.30;;
24801;SDS011;12898;50.520;12.152;2023-02-28T04:37:02;17.03;;;9.47;;
24801;SDS011;12898;50.520;12.152;2023-02-28T04:39:28;16.70;;;9.07;;
24801;SDS011;12898;50.520;12.152;2023-02-28T04:41:54;16.67;;;9.07;;
24801;SDS011;12898;50.520;12.152;2023-02-28T04:44:21;18.27;;;9.03;;
24801;SDS011;12898;50.520;12.152;2023-02-28T04:46:47;18.53;;;9.60;;
24801;SDS011;12898;50.520;12.152;2023-02-28T04:49:13;17.30;;;9.07;;
24801;SDS011;12898;50.520;12.152;2023-02-28T04:51:40;18.13;;;9.67;;
24801;SDS011;12898;50.520;12.152;2023-02-28T04:54:06;18.60;;;9.83;;
24801;SDS011;12898;50.520;12.152;2023-02-28T04:56:33;18.13;;;9.80;;
24801;SDS011;12898;50.520;12.152;2023-02-28T04:58:58;19.03;;;9.77;;
24801;SDS011;12898;50.520;12.152;2023-02-28T05:03:53;18.83;;;9.50;;
24801;SDS011;12898;50.520;12.152;2023-02-28T05:06:21;18.97;;;10.20;;
24801;SDS011;12898;50.520;12.152;2023-02-28T05:08:49;18.10;;;9.70;;
24801;SDS011;12898;50.520;12.152;2023-02-28T05:11:18;17.27;;;9.67;;
24801;SDS011;12898;50.520;12.152;2023-02-28T05:13:47;18.83;;;9.50;;
24801;SDS011;12898;50.520;12.152;2023-02-28T05:16:14;18.30;;;9.67;;
24801;SDS011;12898;50.520;12.152;2023-02-28T05:18:40;19.07;;;10.07;;
24801;SDS011;12898;50.520;12.152;2023-02-28T05:21:06;17.07;;;10.10;;
24801;SDS011;12898;50.520;12.152;2023-02-28T05:23:51;18.93;;;9.93;;
24801;SDS011;12898;50.520;12.152;2023-02-28T05:26:17;17.67;;;9.73;;
24801;SDS011;12898;50.520;12.152;2023-02-28T05:28:43;19.63;;;11.53;;
24801;SDS011;12898;50.520;12.152;2023-02-28T05:31:12;18.07;;;9.50;;
24801;SDS011;12898;50.520;12.152;2023-02-28T05:33:38;19.90;;;10.27;;
24801;SDS011;12898;50.520;12.152;2023-02-28T05:36:04;18.10;;;10.60;;
24801;SDS011;12898;50.520;12.152;2023-02-28T05:38:31;21.77;;;11.67;;
24801;SDS011;12898;50.520;12.152;2023-02-28T05:40:56;19.97;;;12.07;;
24801;SDS011;12898;50.520;12.152;2023-02-28T05:43:22;20.00;;;11.27;;
24801;SDS011;12898;50.520;12.152;2023-02-28T05:45:48;21.43;;;11.60;;
24801;SDS011;12898;50.520;12.152;2023-02-28T05:48:14;21.47;;;11.90;;
24801;SDS011;12898;50.520;12.152;2023-02-28T05:50:40;20.23;;;10.87;;
24801;SDS011;12898;50.520;12.152;2023-02-28T05:53:07;22.67;;;12.47;;
24801;SDS011;12898;50.520;12.152;2023-02-28T05:55:33;21.93;;;12.17;;
24801;SDS011;12898;50.520;12.152;2023-02-28T05:58:00;22.97;;;12.37;;
24801;SDS011;12898;50.520;12.152;2023-02-28T06:00:26;22.60;;;13.07;;
24801;SDS011;12898;50.520;12.152;2023-02-28T06:02:52;22.77;;;12.13;;
24801;SDS011;12898;50.520;12.152;2023-02-28T06:05:21;23.73;;;12.70;;
24801;SDS011;12898;50.520;12.152;2023-02-28T06:07:47;21.27;;;11.90;;
24801;SDS011;12898;50.520;12.152;2023-02-28T06:10:13;23.20;;;12.67;;
24801;SDS011;12898;50.520;12.152;2023-02-28T06:12:39;24.13;;;13.50;;
24801;SDS011;12898;50.520;12.152;2023-02-28T06:15:06;22.80;;;12.00;;
24801;SDS011;12898;50.520;12.152;2023-02-28T06:17:36;19.90;;;11.33;;
24801;SDS011;12898;50.520;12.152;2023-02-28T06:20:02;18.33;;;11.10;;
24801;SDS011;12898;50.520;12.152;2023-02-28T06:22:30;24.70;;;11.47;;
24801;SDS011;12898;50.520;12.152;2023-02-28T06:24:56;20.80;;;12.13;;
24801;SDS011;12898;50.520;12.152;2023-02-28T06:27:22;22.43;;;12.40;;
24801;SDS011;12898;50.520;12.152;2023-02-28T06:29:49;22.10;;;11.93;;
24801;SDS011;12898;50.520;12.152;2023-02-28T06:32:19;21.23;;;11.77;;
24801;SDS011;12898;50.520;12.152;2023-02-28T06:34:44;23.63;;;12.23;;
24801;SDS011;12898;50.520;12.152;2023-02-28T06:37:10;23.10;;;11.53;;
24801;SDS011;12898;50.520;12.152;2023-02-28T06:39:36;21.53;;;11.70;;
24801;SDS011;12898;50.520;12.152;2023-02-28T06:42:01;20.53;;;12.30;;
24801;SDS011;12898;50.520;12.152;2023-02-28T06:44:27;22.43;;;12.07;;
24801;SDS011;12898;50.520;12.152;2023-02-28T06:46:59;24.17;;;13.30;;
24801;SDS011;12898;50.520;12.152;2023-02-28T06:49:28;22.37;;;12.27;;
24801;SDS011;12898;50.520;12.152;2023-02-28T06:51:55;22.73;;;13.27;;
24801;SDS011;12898;50.520;12.152;2023-02-28T06:54:21;21.40;;;11.37;;
24801;SDS011;12898;50.520;12.152;2023-02-28T06:56:47;19.80;;;11.03;;
24801;SDS011;12898;50.520;12.152;2023-02-28T06:59:13;19.60;;;10.63;;
24801;SDS011;12898;50.520;12.152;2023-02-28T07:01:39;18.43;;;10.00;;
24801;SDS011;12898;50.520;12.152;2023-02-28T07:04:05;19.77;;;10.33;;
24801;SDS011;12898;50.520;12.152;2023-02-28T07:06:31;19.67;;;10.23;;
24801;SDS011;12898;50.520;12.152;2023-02-28T07:08:57;18.47;;;10.40;;
24801;SDS011;12898;50.520;12.152;2023-02-28T07:11:24;20.43;;;11.77;;
24801;SDS011;12898;50.520;12.152;2023-02-28T07:13:55;19.33;;;10.90;;
24801;SDS011;12898;50.520;12.152;2023-02-28T07:16:21;20.53;;;10.40;;
24801;SDS011;12898;50.520;12.152;2023-02-28T07:18:48;18.13;;;9.60;;
24801;SDS011;12898;50.520;12.152;2023-02-28T07:21:14;19.00;;;11.10;;
24801;SDS011;12898;50.520;12.152;2023-02-28T07:23:40;19.90;;;10.80;;
24801;SDS011;12898;50.520;12.152;2023-02-28T07:26:07;19.33;;;10.20;;
24801;SDS011;12898;50.520;12.152;2023-02-28T07:28:39;19.73;;;10.73;;
24801;SDS011;12898;50.520;12.152;2023-02-28T07:31:07;19.73;;;10.47;;
24801;SDS011;12898;50.520;12.152;2023-02-28T07:33:34;17.40;;;9.57;;
24801;SDS011;12898;50.520;12.152;2023-02-28T07:36:04;18.13;;;9.87;;
24801;SDS011;12898;50.520;12.152;2023-02-28T07:38:34;16.13;;;9.13;;
24801;SDS011;12898;50.520;12.152;2023-02-28T07:41:01;16.93;;;9.37;;
24801;SDS011;12898;50.520;12.152;2023-02-28T07:43:29;16.53;;;9.37;;
24801;SDS011;12898;50.520;12.152;2023-02-28T07:46:00;18.90;;;9.60;;
24801;SDS011;12898;50.520;12.152;2023-02-28T07:48:31;17.23;;;9.23;;
24801;SDS011;12898;50.520;12.152;2023-02-28T07:50:57;18.27;;;9.77;;
24801;SDS011;12898;50.520;12.152;2023-02-28T07:53:24;16.63;;;8.23;;
24801;SDS011;12898;50.520;12.152;2023-02-28T07:55:50;17.23;;;9.00;;
24801;SDS011;12898;50.520;12.152;2023-02-28T07:58:16;15.30;;;8.43;;
24801;SDS011;12898;50.520;12.152;2023-02-28T08:00:41;20.27;;;9.80;;
24801;SDS011;12898;50.520;12.152;2023-02-28T08:03:09;16.53;;;9.20;;
24801;SDS011;12898;50.520;12.152;2023-02-28T08:05:38;16.20;;;8.80;;
24801;SDS011;12898;50.520;12.152;2023-02-28T08:08:07;16.47;;;8.10;;
24801;SDS011;12898;50.520;12.152;2023-02-28T08:10:33;17.73;;;9.27;;
24801;SDS011;12898;50.520;12.152;2023-02-28T08:12:59;18.17;;;7.97;;
24801;SDS011;12898;50.520;12.152;2023-02-28T08:15:25;17.90;;;8.47;;
24801;SDS011;12898;50.520;12.152;2023-02-28T08:17:51;17.67;;;8.00;;
24801;SDS011;12898;50.520;12.152;2023-02-28T08:20:17;14.33;;;8.23;;
24801;SDS011;12898;50.520;12.152;2023-02-28T08:22:43;15.43;;;8.63;;
24801;SDS011;12898;50.520;12.152;2023-02-28T08:25:09;17.60;;;8.07;;
24801;SDS011;12898;50.520;12.152;2023-02-28T08:27:35;16.60;;;8.37;;
24801;SDS011;12898;50.520;12.152;2023-02-28T08:30:02;16.83;;;8.40;;
24801;SDS011;12898;50.520;12.152;2023-02-28T08:32:28;16.90;;;8.47;;
24801;SDS011;12898;50.520;12.152;2023-02-28T08:34:53;14.47;;;8.23;;
24801;SDS011;12898;50.520;12.152;2023-02-28T08:37:19;13.23;;;7.50;;
24801;SDS011;12898;50.520;12.152;2023-02-28T08:39:45;14.97;;;7.77;;
24801;SDS011;12898;50.520;12.152;2023-02-28T08:42:11;14.77;;;7.60;;
24801;SDS011;12898;50.520;12.152;2023-02-28T08:44:36;14.13;;;7.73;;
24801;SDS011;12898;50.520;12.152;2023-02-28T08:47:02;15.77;;;7.90;;
24801;SDS011;12898;50.520;12.152;2023-02-28T08:49:28;14.53;;;7.90;;
24801;SDS011;12898;50.520;12.152;2023-02-28T08:51:54;15.57;;;7.77;;
24801;SDS011;12898;50.520;12.152;2023-02-28T08:54:22;15.87;;;8.20;;
24801;SDS011;12898;50.520;12.152;2023-02-28T08:56:48;14.83;;;7.27;;
24801;SDS011;12898;50.520;12.152;2023-02-28T08:59:14;15.43;;;7.73;;
24801;SDS011;12898;50.520;12.152;2023-02-28T09:01:39;14.80;;;7.83;;
24801;SDS011;12898;50.520;12.152;2023-02-28T09:04:06;14.60;;;7.67;;
24801;SDS011;12898;50.520;12.152;2023-02-28T09:06:33;16.43;;;7.60;;
24801;SDS011;12898;50.520;12.152;2023-02-28T09:08:59;13.77;;;7.50;;
24801;SDS011;12898;50.520;12.152;2023-02-28T09:11:26;15.40;;;7.70;;
24801;SDS011;12898;50.520;12.152;2023-02-28T09:13:53;13.90;;;7.33;;
24801;SDS011;12898;50.520;12.152;2023-02-28T09:16:20;15.47;;;7.57;;
24801;SDS011;12898;50.520;12.152;2023-02-28T09:18:46;15.27;;;7.40;;
24801;SDS011;12898;50.520;12.152;2023-02-28T09:21:13;12.03;;;6.67;;
24801;SDS011;12898;50.520;12.152;2023-02-28T09:23:45;13.03;;;6.73;;
24801;SDS011;12898;50.520;12.152;2023-02-28T09:26:16;13.10;;;6.43;;
24801;SDS011;12898;50.520;12.152;2023-02-28T09:28:48;10.87;;;6.23;;
24801;SDS011;12898;50.520;12.152;2023-02-28T09:31:14;12.80;;;7.10;;
24801;SDS011;12898;50.520;12.152;2023-02-28T09:33:50;16.33;;;7.30;;
24801;SDS011;12898;50.520;12.152;2023-02-28T09:36:18;13.80;;;6.80;;
24801;SDS011;12898;50.520;12.152;2023-02-28T09:38:47;11.67;;;6.10;;
24801;SDS011;12898;50.520;12.152;2023-02-28T09:41:17;12.33;;;6.20;;
24801;SDS011;12898;50.520;12.152;2023-02-28T09:43:52;14.03;;;6.20;;
24801;SDS011;12898;50.520;12.152;2023-02-28T09:46:25;12.47;;;6.10;;
24801;SDS011;12898;50.520;12.152;2023-02-28T09:48:56;15.40;;;6.53;;
24801;SDS011;12898;50.520;12.152;2023-02-28T09:54:13;14.03;;;6.87;;
24801;SDS011;12898;50.520;12.152;2023-02-28T10:01:57;12.80;;;6.88;;
24801;SDS011;12898;50.520;12.152;2023-02-28T10:05:00;14.97;;;7.33;;
24801;SDS011;12898;50.520;12.152;2023-02-28T10:07:37;11.73;;;6.50;;
24801;SDS011;12898;50.520;12.152;2023-02-28T10:13:34;12.60;;;6.17;;
24801;SDS011;12898;50.520;12.152;2023-02-28T10:16:23;12.20;;;6.57;;
24801;SDS011;12898;50.520;12.152;2023-02-28T10:19:08;11.07;;;6.63;;
24801;SDS011;12898;50.520;12.152;2023-02-28T10:21:46;11.95;;;7.10;;
24801;SDS011;12898;50.520;12.152;2023-02-28T10:24:21;12.70;;;6.90;;
24801;SDS011;12898;50.520;12.152;2023-02-28T10:29:44;10.32;;;5.88;;
24801;SDS011;12898;50.520;12.152;2023-02-28T10:32:14;15.25;;;9.07;;
24801;SDS011;12898;50.520;12.152;2023-02-28T10:34:43;12.45;;;6.35;;
24801;SDS011;12898;50.520;12.152;2023-02-28T10:37:11;13.15;;;6.80;;
24801;SDS011;12898;50.520;12.152;2023-02-28T10:39:40;12.63;;;6.88;;
24801;SDS011;12898;50.520;12.152;2023-02-28T10:42:27;12.65;;;6.60;;
24801;SDS011;12898;50.520;12.152;2023-02-28T10:45:11;13.38;;;6.90;;
24801;SDS011;12898;50.520;12.152;2023-02-28T10:47:42;13.30;;;6.72;;
24801;SDS011;12898;50.520;12.152;2023-02-28T10:50:30;14.10;;;7.00;;
24801;SDS011;12898;50.520;12.152;2023-02-28T10:53:28;12.57;;;6.47;;
24801;SDS011;12898;50.520;12.152;2023-02-28T10:56:17;12.13;;;6.88;;
24801;SDS011;12898;50.520;12.152;2023-02-28T11:01:44;14.15;;;7.22;;
24801;SDS011;12898;50.520;12.152;2023-02-28T11:09:46;11.88;;;6.85;;
24801;SDS011;12898;50.520;12.152;2023-02-28T11:12:36;14.73;;;7.30;;
24801;SDS011;12898;50.520;12.152;2023-02-28T11:15:05;12.85;;;7.68;;
24801;SDS011;12898;50.520;12.152;2023-02-28T11:17:53;12.45;;;7.07;;
24801;SDS011;12898;50.520;12.152;2023-02-28T11:20:22;11.43;;;6.43;;
24801;SDS011;12898;50.520;12.152;2023-02-28T11:22:51;11.68;;;6.95;;
24801;SDS011;12898;50.520;12.152;2023-02-28T11:27:59;12.43;;;7.07;;
24801;SDS011;12898;50.520;12.152;2023-02-28T11:30:28;12.05;;;7.25;;
24801;SDS011;12898;50.520;12.152;2023-02-28T11:33:01;12.88;;;6.80;;
24801;SDS011;12898;50.520;12.152;2023-02-28T11:35:52;12.30;;;6.93;;
24801;SDS011;12898;50.520;12.152;2023-02-28T11:38:23;10.95;;;6.57;;
24801;SDS011;12898;50.520;12.152;2023-02-28T11:46:20;13.20;;;7.18;;
24801;SDS011;12898;50.520;12.152;2023-02-28T11:49:01;13.50;;;6.75;;
24801;SDS011;12898;50.520;12.152;2023-02-28T11:51:39;11.23;;;5.63;;
24801;SDS011;12898;50.520;12.152;2023-02-28T11:57:40;12.32;;;5.82;;
24801;SDS011;12898;50.520;12.152;2023-02-28T12:10:57;12.07;;;6.00;;
24801;SDS011;12898;50.520;12.152;2023-02-28T12:17:17;10.52;;;6.30;;
24801;SDS011;12898;50.520;12.152;2023-02-28T12:23:43;12.73;;;6.40;;
24801;SDS011;12898;50.520;12.152;2023-02-28T12:32:14;11.55;;;6.45;;
24801;SDS011;12898;50.520;12.152;2023-02-28T12:34:50;11.60;;;6.78;;
24801;SDS011;12898;50.520;12.152;2023-02-28T12:37:28;12.15;;;6.70;;
24801;SDS011;12898;50.520;12.152;2023-02-28T12:40:11;13.05;;;7.13;;
24801;SDS011;12898;50.520;12.152;2023-02-28T12:42:42;13.10;;;6.78;;
24801;SDS011;12898;50.520;12.152;2023-02-28T12:45:37;13.57;;;6.75;;
24801;SDS011;12898;50.520;12.152;2023-02-28T12:48:14;13.73;;;7.00;;
24801;SDS011;12898;50.520;12.152;2023-02-28T12:50:51;12.60;;;6.93;;
24801;SDS011;12898;50.520;12.152;2023-02-28T12:53:24;12.00;;;6.75;;
24801;SDS011;12898;50.520;12.152;2023-02-28T12:58:47;12.82;;;7.43;;
24801;SDS011;12898;50.520;12.152;2023-02-28T13:11:31;12.73;;;7.05;;
24801;SDS011;12898;50.520;12.152;2023-02-28T13:14:22;13.30;;;7.40;;
24801;SDS011;12898;50.520;12.152;2023-02-28T13:16:53;12.23;;;7.40;;
24801;SDS011;12898;50.520;12.152;2023-02-28T13:19:29;13.90;;;7.20;;
24801;SDS011;12898;50.520;12.152;2023-02-28T13:21:58;12.15;;;6.70;;
24801;SDS011;12898;50.520;12.152;2023-02-28T13:24:42;12.88;;;7.55;;
24801;SDS011;12898;50.520;12.152;2023-02-28T13:27:19;13.88;;;6.95;;
24801;SDS011;12898;50.520;12.152;2023-02-28T13:29:49;13.05;;;7.53;;
24801;SDS011;12898;50.520;12.152;2023-02-28T13:32:19;12.32;;;7.65;;
24801;SDS011;12898;50.520;12.152;2023-02-28T13:42:53;13.57;;;7.95;;
24801;SDS011;12898;50.520;12.152;2023-02-28T13:47:52;12.88;;;7.22;;
24801;SDS011;12898;50.520;12.152;2023-02-28T13:50:44;12.65;;;6.82;;
24801;SDS011;12898;50.520;12.152;2023-02-28T14:07:07;14.02;;;7.53;;
24801;SDS011;12898;50.520;12.152;2023-02-28T14:09:35;13.65;;;6.97;;
24801;SDS011;12898;50.520;12.152;2023-02-28T14:15:30;13.02;;;7.18;;
24801;SDS011;12898;50.520;12.152;2023-02-28T14:18:22;13.30;;;7.25;;
24801;SDS011;12898;50.520;12.152;2023-02-28T14:20:49;12.93;;;6.97;;
24801;SDS011;12898;50.520;12.152;2023-02-28T14:23:26;13.10;;;7.50;;
24801;SDS011;12898;50.520;12.152;2023-02-28T14:26:18;13.07;;;7.43;;
24801;SDS011;12898;50.520;12.152;2023-02-28T14:31:42;13.00;;;6.72;;
24801;SDS011;12898;50.520;12.152;2023-02-28T14:37:16;13.43;;;8.02;;
24801;SDS011;12898;50.520;12.152;2023-02-28T14:39:46;12.93;;;7.28;;
24801;SDS011;12898;50.520;12.152;2023-02-28T14:42:46;13.85;;;8.30;;
24801;SDS011;12898;50.520;12.152;2023-02-28T14:45:17;11.65;;;7.47;;
24801;SDS011;12898;50.520;12.152;2023-02-28T14:47:47;13.73;;;8.25;;
24801;SDS011;12898;50.520;12.152;2023-02-28T14:50:20;14.80;;;8.23;;
24801;SDS011;12898;50.520;12.152;2023-02-28T14:52:51;14.27;;;9.13;;
24801;SDS011;12898;50.520;12.152;2023-02-28T14:55:20;15.60;;;8.80;;
24801;SDS011;12898;50.520;12.152;2023-02-28T14:57:53;14.18;;;8.10;;
24801;SDS011;12898;50.520;12.152;2023-02-28T15:00:34;16.98;;;8.95;;
24801;SDS011;12898;50.520;12.152;2023-02-28T15:03:27;14.98;;;8.57;;
24801;SDS011;12898;50.520;12.152;2023-02-28T15:06:04;13.68;;;8.32;;
24801;SDS011;12898;50.520;12.152;2023-02-28T15:08:38;14.88;;;8.52;;
24801;SDS011;12898;50.520;12.152;2023-02-28T15:11:05;17.80;;;8.87;;
24801;SDS011;12898;50.520;12.152;2023-02-28T15:13:39;14.13;;;9.07;;
24801;SDS011;12898;50.520;12.152;2023-02-28T15:16:12;15.45;;;8.93;;
24801;SDS011;12898;50.520;12.152;2023-02-28T15:18:49;14.18;;;8.27;;
24801;SDS011;12898;50.520;12.152;2023-02-28T15:21:31;15.67;;;9.53;;
24801;SDS011;12898;50.520;12.152;2023-02-28T15:26:34;14.80;;;9.13;;
24801;SDS011;12898;50.520;12.152;2023-02-28T15:29:05;14.25;;;9.32;;
24801;SDS011;12898;50.520;12.152;2023-02-28T15:31:43;14.43;;;9.32;;
24801;SDS011;12898;50.520;12.152;2023-02-28T15:34:21;15.23;;;8.87;;
24801;SDS011;12898;50.520;12.152;2023-02-28T15:36:53;19.73;;;11.30;;
24801;SDS011;12898;50.520;12.152;2023-02-28T15:39:20;16.63;;;10.10;;
24801;SDS011;12898;50.520;12.152;2023-02-28T15:41:49;15.97;;;10.43;;
24801;SDS011;12898;50.520;12.152;2023-02-28T15:44:28;19.10;;;10.70;;
24801;SDS011;12898;50.520;12.152;2023-02-28T15:46:59;17.43;;;9.50;;
24801;SDS011;12898;50.520;12.152;2023-02-28T15:49:52;16.93;;;10.50;;
24801;SDS011;12898;50.520;12.152;2023-02-28T15:55:10;17.80;;;11.10;;
24801;SDS011;12898;50.520;12.152;2023-02-28T15:57:43;18.87;;;10.37;;
24801;SDS011;12898;50.520;12.152;2023-02-28T16:00:11;18.10;;;10.57;;
24801;SDS011;12898;50.520;12.152;2023-02-28T16:02:41;17.93;;;10.73;;
24801;SDS011;12898;50.520;12.152;2023-02-28T16:07:33;20.60;;;12.50;;
24801;SDS011;12898;50.520;12.152;2023-02-28T16:09:59;18.03;;;10.90;;
24801;SDS011;12898;50.520;12.152;2023-02-28T16:12:27;19.20;;;11.03;;
24801;SDS011;12898;50.520;12.152;2023-02-28T16:14:56;25.07;;;13.53;;
24801;SDS011;12898;50.520;12.152;2023-02-28T16:17:29;20.23;;;11.97;;
24801;SDS011;12898;50.520;12.152;2023-02-28T16:19:58;19.77;;;12.23;;
24801;SDS011;12898;50.520;12.152;2023-02-28T16:22:24;19.00;;;11.47;;
24801;SDS011;12898;50.520;12.152;2023-02-28T16:24:50;18.73;;;11.17;;
24801;SDS011;12898;50.520;12.152;2023-02-28T16:27:28;17.07;;;9.90;;
24801;SDS011;12898;50.520;12.152;2023-02-28T16:29:58;19.07;;;10.90;;
24801;SDS011;12898;50.520;12.152;2023-02-28T16:32:24;18.60;;;10.03;;
24801;SDS011;12898;50.520;12.152;2023-02-28T16:34:49;16.40;;;10.27;;
24801;SDS011;12898;50.520;12.152;2023-02-28T16:37:16;20.63;;;12.37;;
24801;SDS011;12898;50.520;12.152;2023-02-28T16:39:43;17.23;;;9.37;;
24801;SDS011;12898;50.520;12.152;2023-02-28T16:42:15;17.40;;;10.47;;
24801;SDS011;12898;50.520;12.152;2023-02-28T16:44:47;17.83;;;9.77;;
24801;SDS011;12898;50.520;12.152;2023-02-28T16:47:13;18.43;;;9.97;;
24801;SDS011;12898;50.520;12.152;2023-02-28T16:49:39;19.47;;;10.90;;
24801;SDS011;12898;50.520;12.152;2023-02-28T16:52:06;21.13;;;10.40;;
24801;SDS011;12898;50.520;12.152;2023-02-28T16:54:33;22.33;;;11.10;;
24801;SDS011;12898;50.520;12.152;2023-02-28T16:56:59;20.07;;;11.53;;
24801;SDS011;12898;50.520;12.152;2023-02-28T16:59:25;21.90;;;11.13;;
24801;SDS011;12898;50.520;12.152;2023-02-28T17:01:53;17.80;;;10.47;;
24801;SDS011;12898;50.520;12.152;2023-02-28T17:04:21;20.13;;;10.40;;
24801;SDS011;12898;50.520;12.152;2023-02-28T17:06:47;20.03;;;10.63;;
24801;SDS011;12898;50.520;12.152;2023-02-28T17:09:14;19.37;;;11.17;;
24801;SDS011;12898;50.520;12.152;2023-02-28T17:11:43;17.40;;;10.50;;